sensor_id;sensor_type;location;lat;lon;timestamp;P1;durP1;ratioP1;P2;durP2;ratioP2
20365;SDS011;10341;49.894;8.822;2023-08-21T00:01:46;7.50;;;5.37;;
20365;SDS011;10341;49.894;8.822;2023-08-21T00:07:05;8.23;;;6.15;;
20365;SDS011;10341;49.894;8.822;2023-08-21T00:17:44;6.90;;;5.32;;
20365;SDS011;10341;49.894;8.822;2023-08-21T00:23:03;6.32;;;5.18;;
20365;SDS011;10341;49.894;8.822;2023-08-21T00:28:22;7.97;;;6.00;;
20365;SDS011;10341;49.894;8.822;2023-08-21T00:33:42;6.97;;;5.00;;
20365;SDS011;10341;49.894;8.822;2023-08-21T00:39:01;6.57;;;4.93;;
20365;SDS011;10341;49.894;8.822;2023-08-21T00:44:22;6.97;;;4.93;;
20365;SDS011;10341;49.894;8.822;2023-08-21T00:55:02;11.40;;;6.87;;
20365;SDS011;10341;49.894;8.822;2023-08-21T01:00:23;7.78;;;5.90;;
20365;SDS011;10341;49.894;8.822;2023-08-21T01:05:44;7.70;;;5.10;;
20365;SDS011;10341;49.894;8.822;2023-08-21T01:11:14;7.18;;;5.40;;
20365;SDS011;10341;49.894;8.822;2023-08-21T01:16:40;7.88;;;5.35;;
20365;SDS011;10341;49.894;8.822;2023-08-21T01:22:02;11.30;;;5.90;;
20365;SDS011;10341;49.894;8.822;2023-08-21T01:27:22;6.75;;;5.18;;
20365;SDS011;10341;49.894;8.822;2023-08-21T01:38:11;11.35;;;5.65;;
20365;SDS011;10341;49.894;8.822;2023-08-21T01:43:30;10.77;;;5.60;;
20365;SDS011;10341;49.894;8.822;2023-08-21T01:48:49;8.77;;;5.53;;
20365;SDS011;10341;49.894;8.822;2023-08-21T01:54:08;7.93;;;5.65;;
20365;SDS011;10341;49.894;8.822;2023-08-21T01:59:28;11.35;;;5.78;;
20365;SDS011;10341;49.894;8.822;2023-08-21T02:04:47;7.50;;;4.82;;
20365;SDS011;10341;49.894;8.822;2023-08-21T02:15:27;5.97;;;4.72;;
20365;SDS011;10341;49.894;8.822;2023-08-21T02:20:46;7.53;;;5.22;;
20365;SDS011;10341;49.894;8.822;2023-08-21T02:26:07;9.32;;;5.32;;
20365;SDS011;10341;49.894;8.822;2023-08-21T02:31:27;7.25;;;5.20;;
20365;SDS011;10341;49.894;8.822;2023-08-21T02:36:47;7.65;;;5.57;;
20365;SDS011;10341;49.894;8.822;2023-08-21T02:42:07;6.43;;;4.75;;
20365;SDS011;10341;49.894;8.822;2023-08-21T02:47:26;9.50;;;5.47;;
20365;SDS011;10341;49.894;8.822;2023-08-21T02:52:45;6.70;;;4.68;;
20365;SDS011;10341;49.894;8.822;2023-08-21T02:58:05;7.13;;;5.38;;
20365;SDS011;10341;49.894;8.822;2023-08-21T03:03:24;7.00;;;4.93;;
20365;SDS011;10341;49.894;8.822;2023-08-21T03:08:44;7.60;;;5.82;;
20365;SDS011;10341;49.894;8.822;2023-08-21T03:14:03;10.30;;;6.57;;
20365;SDS011;10341;49.894;8.822;2023-08-21T03:19:22;7.40;;;5.35;;
20365;SDS011;10341;49.894;8.822;2023-08-21T03:24:42;7.70;;;5.38;;
20365;SDS011;10341;49.894;8.822;2023-08-21T03:30:01;8.20;;;5.78;;
20365;SDS011;10341;49.894;8.822;2023-08-21T03:35:22;7.78;;;5.47;;
20365;SDS011;10341;49.894;8.822;2023-08-21T03:40:41;6.90;;;5.50;;
20365;SDS011;10341;49.894;8.822;2023-08-21T03:46:01;8.93;;;5.00;;
20365;SDS011;10341;49.894;8.822;2023-08-21T03:51:20;6.82;;;4.57;;
20365;SDS011;10341;49.894;8.822;2023-08-21T03:56:40;5.18;;;4.25;;
20365;SDS011;10341;49.894;8.822;2023-08-21T04:01:59;7.25;;;4.38;;
20365;SDS011;10341;49.894;8.822;2023-08-21T04:07:19;8.38;;;5.05;;
20365;SDS011;10341;49.894;8.822;2023-08-21T04:12:39;6.65;;;4.97;;
20365;SDS011;10341;49.894;8.822;2023-08-21T04:17:58;7.22;;;4.90;;
20365;SDS011;10341;49.894;8.822;2023-08-21T04:23:18;7.88;;;5.18;;
20365;SDS011;10341;49.894;8.822;2023-08-21T04:28:37;10.20;;;6.38;;
20365;SDS011;10341;49.894;8.822;2023-08-21T04:33:56;9.15;;;5.93;;
20365;SDS011;10341;49.894;8.822;2023-08-21T04:39:16;9.82;;;6.28;;
20365;SDS011;10341;49.894;8.822;2023-08-21T04:44:35;8.40;;;5.82;;
20365;SDS011;10341;49.894;8.822;2023-08-21T04:55:16;6.32;;;5.10;;
20365;SDS011;10341;49.894;8.822;2023-08-21T05:00:35;7.40;;;5.57;;
20365;SDS011;10341;49.894;8.822;2023-08-21T05:05:55;9.85;;;5.82;;
20365;SDS011;10341;49.894;8.822;2023-08-21T05:16:36;8.70;;;6.67;;
20365;SDS011;10341;49.894;8.822;2023-08-21T05:21:55;9.50;;;6.38;;
20365;SDS011;10341;49.894;8.822;2023-08-21T05:27:15;10.40;;;6.90;;
20365;SDS011;10341;49.894;8.822;2023-08-21T05:32:35;10.68;;;7.07;;
20365;SDS011;10341;49.894;8.822;2023-08-21T05:37:54;9.38;;;7.03;;
20365;SDS011;10341;49.894;8.822;2023-08-21T05:43:15;10.75;;;7.20;;
20365;SDS011;10341;49.894;8.822;2023-08-21T05:48:35;9.30;;;6.70;;
20365;SDS011;10341;49.894;8.822;2023-08-21T05:53:55;10.68;;;7.40;;
20365;SDS011;10341;49.894;8.822;2023-08-21T05:59:25;9.68;;;7.07;;
20365;SDS011;10341;49.894;8.822;2023-08-21T06:04:47;10.98;;;7.70;;
20365;SDS011;10341;49.894;8.822;2023-08-21T06:10:08;12.70;;;8.43;;
20365;SDS011;10341;49.894;8.822;2023-08-21T06:15:31;11.27;;;7.70;;
20365;SDS011;10341;49.894;8.822;2023-08-21T06:20:51;13.18;;;8.82;;
20365;SDS011;10341;49.894;8.822;2023-08-21T06:26:12;10.45;;;7.57;;
20365;SDS011;10341;49.894;8.822;2023-08-21T06:31:32;10.80;;;7.88;;
20365;SDS011;10341;49.894;8.822;2023-08-21T06:36:51;12.32;;;8.68;;
20365;SDS011;10341;49.894;8.822;2023-08-21T06:42:11;13.70;;;8.13;;
20365;SDS011;10341;49.894;8.822;2023-08-21T06:47:36;15.25;;;10.23;;
20365;SDS011;10341;49.894;8.822;2023-08-21T06:52:56;12.80;;;8.07;;
20365;SDS011;10341;49.894;8.822;2023-08-21T06:58:15;11.27;;;7.90;;
20365;SDS011;10341;49.894;8.822;2023-08-21T07:03:34;11.30;;;8.50;;
20365;SDS011;10341;49.894;8.822;2023-08-21T07:08:54;9.82;;;7.65;;
20365;SDS011;10341;49.894;8.822;2023-08-21T07:14:13;11.53;;;7.53;;
20365;SDS011;10341;49.894;8.822;2023-08-21T07:19:33;9.43;;;7.60;;
20365;SDS011;10341;49.894;8.822;2023-08-21T07:24:52;7.97;;;6.67;;
20365;SDS011;10341;49.894;8.822;2023-08-21T07:30:11;9.15;;;6.63;;
20365;SDS011;10341;49.894;8.822;2023-08-21T07:35:31;9.68;;;7.68;;
20365;SDS011;10341;49.894;8.822;2023-08-21T07:40:52;7.70;;;6.63;;
20365;SDS011;10341;49.894;8.822;2023-08-21T07:46:24;11.35;;;7.57;;
20365;SDS011;10341;49.894;8.822;2023-08-21T07:51:43;8.32;;;6.03;;
20365;SDS011;10341;49.894;8.822;2023-08-21T07:57:02;11.27;;;6.83;;
20365;SDS011;10341;49.894;8.822;2023-08-21T08:02:23;11.13;;;6.80;;
20365;SDS011;10341;49.894;8.822;2023-08-21T08:07:43;8.38;;;6.30;;
20365;SDS011;10341;49.894;8.822;2023-08-21T08:18:21;9.57;;;6.65;;
20365;SDS011;10341;49.894;8.822;2023-08-21T08:23:41;9.60;;;6.85;;
20365;SDS011;10341;49.894;8.822;2023-08-21T08:34:19;8.83;;;6.40;;
20365;SDS011;10341;49.894;8.822;2023-08-21T08:39:39;8.45;;;5.60;;
20365;SDS011;10341;49.894;8.822;2023-08-21T08:44:58;7.82;;;5.22;;
20365;SDS011;10341;49.894;8.822;2023-08-21T08:50:21;6.38;;;4.93;;
20365;SDS011;10341;49.894;8.822;2023-08-21T08:55:42;6.45;;;4.53;;
20365;SDS011;10341;49.894;8.822;2023-08-21T09:01:01;7.25;;;5.30;;
20365;SDS011;10341;49.894;8.822;2023-08-21T09:06:21;7.50;;;5.45;;
20365;SDS011;10341;49.894;8.822;2023-08-21T09:11:43;7.85;;;5.10;;
20365;SDS011;10341;49.894;8.822;2023-08-21T09:17:04;7.97;;;5.30;;
20365;SDS011;10341;49.894;8.822;2023-08-21T09:22:24;4.85;;;4.32;;
20365;SDS011;10341;49.894;8.822;2023-08-21T09:27:43;6.13;;;4.97;;
20365;SDS011;10341;49.894;8.822;2023-08-21T09:33:03;5.88;;;4.30;;
20365;SDS011;10341;49.894;8.822;2023-08-21T09:38:25;5.03;;;4.43;;
20365;SDS011;10341;49.894;8.822;2023-08-21T09:43:45;4.80;;;4.10;;
20365;SDS011;10341;49.894;8.822;2023-08-21T09:49:04;5.40;;;3.58;;
20365;SDS011;10341;49.894;8.822;2023-08-21T09:54:23;5.15;;;4.15;;
20365;SDS011;10341;49.894;8.822;2023-08-21T09:59:43;3.55;;;3.25;;
20365;SDS011;10341;49.894;8.822;2023-08-21T10:05:03;4.70;;;4.20;;
20365;SDS011;10341;49.894;8.822;2023-08-21T10:10:23;5.03;;;4.03;;
20365;SDS011;10341;49.894;8.822;2023-08-21T10:15:43;4.05;;;3.65;;
20365;SDS011;10341;49.894;8.822;2023-08-21T10:21:10;4.32;;;3.42;;
20365;SDS011;10341;49.894;8.822;2023-08-21T10:26:34;3.42;;;3.13;;
20365;SDS011;10341;49.894;8.822;2023-08-21T10:31:58;3.70;;;2.85;;
20365;SDS011;10341;49.894;8.822;2023-08-21T10:37:22;3.60;;;3.13;;
20365;SDS011;10341;49.894;8.822;2023-08-21T10:42:41;3.65;;;3.08;;
20365;SDS011;10341;49.894;8.822;2023-08-21T10:48:01;2.85;;;2.63;;
20365;SDS011;10341;49.894;8.822;2023-08-21T10:53:22;2.95;;;2.65;;
20365;SDS011;10341;49.894;8.822;2023-08-21T10:58:43;3.78;;;2.35;;
20365;SDS011;10341;49.894;8.822;2023-08-21T11:04:05;2.40;;;2.22;;
20365;SDS011;10341;49.894;8.822;2023-08-21T11:09:24;3.88;;;3.00;;
20365;SDS011;10341;49.894;8.822;2023-08-21T11:14:44;3.10;;;2.80;;
20365;SDS011;10341;49.894;8.822;2023-08-21T11:20:04;3.53;;;2.90;;
20365;SDS011;10341;49.894;8.822;2023-08-21T11:25:24;3.58;;;2.80;;
20365;SDS011;10341;49.894;8.822;2023-08-21T11:30:44;3.00;;;2.70;;
20365;SDS011;10341;49.894;8.822;2023-08-21T11:36:04;3.67;;;2.60;;
20365;SDS011;10341;49.894;8.822;2023-08-21T11:41:24;3.10;;;2.80;;
20365;SDS011;10341;49.894;8.822;2023-08-21T11:46:43;2.60;;;2.40;;
20365;SDS011;10341;49.894;8.822;2023-08-21T11:52:02;2.83;;;2.45;;
20365;SDS011;10341;49.894;8.822;2023-08-21T11:57:22;2.42;;;2.22;;
20365;SDS011;10341;49.894;8.822;2023-08-21T12:02:42;2.67;;;2.30;;
20365;SDS011;10341;49.894;8.822;2023-08-21T12:08:01;2.42;;;1.95;;
20365;SDS011;10341;49.894;8.822;2023-08-21T12:13:21;3.47;;;1.83;;
20365;SDS011;10341;49.894;8.822;2023-08-21T12:18:41;4.15;;;2.35;;
20365;SDS011;10341;49.894;8.822;2023-08-21T12:24:00;2.28;;;2.08;;
20365;SDS011;10341;49.894;8.822;2023-08-21T12:29:20;3.15;;;1.92;;
20365;SDS011;10341;49.894;8.822;2023-08-21T12:34:39;2.40;;;2.03;;
20365;SDS011;10341;49.894;8.822;2023-08-21T12:39:58;4.28;;;2.13;;
20365;SDS011;10341;49.894;8.822;2023-08-21T12:45:18;2.65;;;1.98;;
20365;SDS011;10341;49.894;8.822;2023-08-21T12:50:37;2.42;;;2.08;;
20365;SDS011;10341;49.894;8.822;2023-08-21T12:55:56;2.47;;;1.83;;
20365;SDS011;10341;49.894;8.822;2023-08-21T13:01:15;3.30;;;2.10;;
20365;SDS011;10341;49.894;8.822;2023-08-21T13:06:35;2.10;;;1.88;;
20365;SDS011;10341;49.894;8.822;2023-08-21T13:11:54;3.40;;;2.47;;
20365;SDS011;10341;49.894;8.822;2023-08-21T13:17:14;2.53;;;1.90;;
20365;SDS011;10341;49.894;8.822;2023-08-21T13:22:44;2.65;;;2.10;;
20365;SDS011;10341;49.894;8.822;2023-08-21T13:28:07;3.17;;;2.10;;
20365;SDS011;10341;49.894;8.822;2023-08-21T13:33:27;4.55;;;2.00;;
20365;SDS011;10341;49.894;8.822;2023-08-21T13:38:47;1.75;;;1.65;;
20365;SDS011;10341;49.894;8.822;2023-08-21T13:44:06;2.25;;;2.05;;
20365;SDS011;10341;49.894;8.822;2023-08-21T13:49:26;3.70;;;1.92;;
20365;SDS011;10341;49.894;8.822;2023-08-21T13:54:45;2.20;;;2.00;;
20365;SDS011;10341;49.894;8.822;2023-08-21T14:00:05;2.28;;;1.90;;
20365;SDS011;10341;49.894;8.822;2023-08-21T14:05:27;2.15;;;1.80;;
20365;SDS011;10341;49.894;8.822;2023-08-21T14:10:46;2.90;;;1.60;;
20365;SDS011;10341;49.894;8.822;2023-08-21T14:16:06;1.50;;;1.40;;
20365;SDS011;10341;49.894;8.822;2023-08-21T14:21:25;1.55;;;1.45;;
20365;SDS011;10341;49.894;8.822;2023-08-21T14:26:44;2.72;;;1.50;;
20365;SDS011;10341;49.894;8.822;2023-08-21T14:32:04;1.70;;;1.33;;
20365;SDS011;10341;49.894;8.822;2023-08-21T14:37:24;1.23;;;1.10;;
20365;SDS011;10341;49.894;8.822;2023-08-21T14:42:43;2.50;;;1.10;;
20365;SDS011;10341;49.894;8.822;2023-08-21T14:48:03;2.33;;;1.10;;
20365;SDS011;10341;49.894;8.822;2023-08-21T14:53:22;1.83;;;1.17;;
20365;SDS011;10341;49.894;8.822;2023-08-21T14:58:42;2.30;;;1.15;;
20365;SDS011;10341;49.894;8.822;2023-08-21T15:04:02;2.72;;;1.23;;
20365;SDS011;10341;49.894;8.822;2023-08-21T15:09:21;2.17;;;1.00;;
20365;SDS011;10341;49.894;8.822;2023-08-21T15:14:40;1.10;;;0.95;;
20365;SDS011;10341;49.894;8.822;2023-08-21T15:19:59;1.52;;;1.20;;
20365;SDS011;10341;49.894;8.822;2023-08-21T15:25:19;1.52;;;1.10;;
20365;SDS011;10341;49.894;8.822;2023-08-21T15:30:39;1.13;;;1.05;;
20365;SDS011;10341;49.894;8.822;2023-08-21T15:35:58;1.25;;;1.10;;
20365;SDS011;10341;49.894;8.822;2023-08-21T15:41:17;1.60;;;1.20;;
20365;SDS011;10341;49.894;8.822;2023-08-21T15:46:36;1.80;;;1.63;;
20365;SDS011;10341;49.894;8.822;2023-08-21T15:51:55;1.70;;;1.40;;
20365;SDS011;10341;49.894;8.822;2023-08-21T15:57:14;1.95;;;1.20;;
20365;SDS011;10341;49.894;8.822;2023-08-21T16:02:33;1.60;;;1.40;;
20365;SDS011;10341;49.894;8.822;2023-08-21T16:07:53;1.60;;;1.45;;
20365;SDS011;10341;49.894;8.822;2023-08-21T16:13:14;1.70;;;1.60;;
20365;SDS011;10341;49.894;8.822;2023-08-21T16:18:36;2.30;;;1.80;;
20365;SDS011;10341;49.894;8.822;2023-08-21T16:23:56;1.35;;;1.25;;
20365;SDS011;10341;49.894;8.822;2023-08-21T16:29:16;3.00;;;1.65;;
20365;SDS011;10341;49.894;8.822;2023-08-21T16:34:37;2.28;;;1.50;;
20365;SDS011;10341;49.894;8.822;2023-08-21T16:39:56;1.83;;;1.38;;
20365;SDS011;10341;49.894;8.822;2023-08-21T16:45:15;1.52;;;1.42;;
20365;SDS011;10341;49.894;8.822;2023-08-21T16:50:34;2.95;;;2.13;;
20365;SDS011;10341;49.894;8.822;2023-08-21T16:55:53;2.80;;;1.50;;
20365;SDS011;10341;49.894;8.822;2023-08-21T17:01:12;2.15;;;1.58;;
20365;SDS011;10341;49.894;8.822;2023-08-21T17:06:31;2.35;;;1.73;;
20365;SDS011;10341;49.894;8.822;2023-08-21T17:11:51;2.13;;;1.70;;
20365;SDS011;10341;49.894;8.822;2023-08-21T17:17:10;10.95;;;7.18;;
20365;SDS011;10341;49.894;8.822;2023-08-21T17:22:29;11.73;;;8.07;;
20365;SDS011;10341;49.894;8.822;2023-08-21T17:27:48;4.45;;;2.05;;
20365;SDS011;10341;49.894;8.822;2023-08-21T17:33:07;4.72;;;3.80;;
20365;SDS011;10341;49.894;8.822;2023-08-21T17:38:26;8.70;;;5.50;;
20365;SDS011;10341;49.894;8.822;2023-08-21T17:49:04;10.87;;;7.77;;
20365;SDS011;10341;49.894;8.822;2023-08-21T17:59:42;4.90;;;3.33;;
20365;SDS011;10341;49.894;8.822;2023-08-21T18:05:02;6.43;;;3.35;;
20365;SDS011;10341;49.894;8.822;2023-08-21T18:10:23;5.93;;;3.25;;
20365;SDS011;10341;49.894;8.822;2023-08-21T18:15:43;3.33;;;2.60;;
20365;SDS011;10341;49.894;8.822;2023-08-21T18:21:02;4.47;;;2.30;;
20365;SDS011;10341;49.894;8.822;2023-08-21T18:26:24;3.33;;;2.33;;
20365;SDS011;10341;49.894;8.822;2023-08-21T18:37:06;3.40;;;2.53;;
20365;SDS011;10341;49.894;8.822;2023-08-21T18:42:26;3.72;;;2.63;;
20365;SDS011;10341;49.894;8.822;2023-08-21T18:47:45;2.95;;;2.53;;
20365;SDS011;10341;49.894;8.822;2023-08-21T18:53:06;3.85;;;2.60;;
20365;SDS011;10341;49.894;8.822;2023-08-21T18:58:25;4.05;;;3.00;;
20365;SDS011;10341;49.894;8.822;2023-08-21T19:03:56;4.77;;;2.97;;
20365;SDS011;10341;49.894;8.822;2023-08-21T19:09:15;2.53;;;2.33;;
20365;SDS011;10341;49.894;8.822;2023-08-21T19:14:34;4.27;;;2.67;;
20365;SDS011;10341;49.894;8.822;2023-08-21T19:19:53;3.03;;;2.60;;
20365;SDS011;10341;49.894;8.822;2023-08-21T19:31:35;2.67;;;2.42;;
20365;SDS011;10341;49.894;8.822;2023-08-21T19:36:55;3.40;;;3.10;;
20365;SDS011;10341;49.894;8.822;2023-08-21T19:42:15;6.22;;;2.70;;
20365;SDS011;10341;49.894;8.822;2023-08-21T19:47:34;3.28;;;2.60;;
20365;SDS011;10341;49.894;8.822;2023-08-21T19:59:35;2.72;;;2.42;;
20365;SDS011;10341;49.894;8.822;2023-08-21T20:04:55;4.05;;;2.92;;
20365;SDS011;10341;49.894;8.822;2023-08-21T20:10:15;3.15;;;2.58;;
20365;SDS011;10341;49.894;8.822;2023-08-21T20:15:34;3.45;;;2.60;;
20365;SDS011;10341;49.894;8.822;2023-08-21T20:20:54;3.17;;;2.40;;
20365;SDS011;10341;49.894;8.822;2023-08-21T20:26:13;5.30;;;2.90;;
20365;SDS011;10341;49.894;8.822;2023-08-21T20:31:33;6.78;;;3.17;;
20365;SDS011;10341;49.894;8.822;2023-08-21T20:36:53;3.97;;;3.00;;
20365;SDS011;10341;49.894;8.822;2023-08-21T20:42:12;3.72;;;2.90;;
20365;SDS011;10341;49.894;8.822;2023-08-21T20:47:32;5.10;;;3.03;;
20365;SDS011;10341;49.894;8.822;2023-08-21T20:52:52;2.78;;;2.50;;
20365;SDS011;10341;49.894;8.822;2023-08-21T20:58:11;4.80;;;2.88;;
20365;SDS011;10341;49.894;8.822;2023-08-21T21:03:36;3.63;;;2.90;;
20365;SDS011;10341;49.894;8.822;2023-08-21T21:08:55;5.20;;;3.42;;
20365;SDS011;10341;49.894;8.822;2023-08-21T21:14:15;7.18;;;3.90;;
20365;SDS011;10341;49.894;8.822;2023-08-21T21:19:34;5.65;;;3.50;;
20365;SDS011;10341;49.894;8.822;2023-08-21T21:24:54;3.58;;;3.00;;
20365;SDS011;10341;49.894;8.822;2023-08-21T21:30:14;4.82;;;3.17;;
20365;SDS011;10341;49.894;8.822;2023-08-21T21:35:33;4.90;;;3.28;;
20365;SDS011;10341;49.894;8.822;2023-08-21T21:40:53;4.57;;;3.97;;
20365;SDS011;10341;49.894;8.822;2023-08-21T21:46:15;7.18;;;3.92;;
20365;SDS011;10341;49.894;8.822;2023-08-21T21:51:35;5.60;;;3.58;;
20365;SDS011;10341;49.894;8.822;2023-08-21T21:56:54;5.00;;;3.50;;
20365;SDS011;10341;49.894;8.822;2023-08-21T22:02:14;6.05;;;3.40;;
20365;SDS011;10341;49.894;8.822;2023-08-21T22:07:33;4.10;;;3.50;;
20365;SDS011;10341;49.894;8.822;2023-08-21T22:12:53;5.80;;;4.10;;
20365;SDS011;10341;49.894;8.822;2023-08-21T22:18:15;4.35;;;3.28;;
20365;SDS011;10341;49.894;8.822;2023-08-21T22:23:34;5.00;;;3.40;;
20365;SDS011;10341;49.894;8.822;2023-08-21T22:28:55;3.40;;;3.08;;
20365;SDS011;10341;49.894;8.822;2023-08-21T22:34:14;4.22;;;3.33;;
20365;SDS011;10341;49.894;8.822;2023-08-21T22:39:34;3.55;;;3.25;;
20365;SDS011;10341;49.894;8.822;2023-08-21T22:44:54;4.32;;;3.38;;
20365;SDS011;10341;49.894;8.822;2023-08-21T22:50:14;4.80;;;3.25;;
20365;SDS011;10341;49.894;8.822;2023-08-21T22:55:33;5.35;;;3.40;;
20365;SDS011;10341;49.894;8.822;2023-08-21T23:00:58;4.50;;;3.65;;
20365;SDS011;10341;49.894;8.822;2023-08-21T23:06:17;4.65;;;3.70;;
20365;SDS011;10341;49.894;8.822;2023-08-21T23:11:37;8.25;;;4.13;;
20365;SDS011;10341;49.894;8.822;2023-08-21T23:22:16;6.78;;;4.40;;
20365;SDS011;10341;49.894;8.822;2023-08-21T23:27:35;4.97;;;3.83;;
20365;SDS011;10341;49.894;8.822;2023-08-21T23:32:55;5.55;;;4.55;;
20365;SDS011;10341;49.894;8.822;2023-08-21T23:38:15;5.97;;;4.55;;
20365;SDS011;10341;49.894;8.822;2023-08-21T23:43:34;5.85;;;4.20;;
20365;SDS011;10341;49.894;8.822;2023-08-21T23:48:54;6.65;;;4.30;;
20365;SDS011;10341;49.894;8.822;2023-08-21T23:54:13;5.55;;;4.10;;
20365;SDS011;10341;49.894;8.822;2023-08-21T23:59:33;6.28;;;4.30;;
